createdAt,value
2022-12-27T00:00:54.708Z,70.85
2022-12-27T00:01:54.644Z,70.85
2022-12-27T00:02:54.639Z,70.76
2022-12-27T00:03:54.588Z,70.85
2022-12-27T00:04:54.621Z,70.85
2022-12-27T00:05:54.596Z,71.04
2022-12-27T00:06:54.596Z,70.85
2022-12-27T00:07:54.584Z,70.76
2022-12-27T00:08:54.580Z,70.95
2022-12-27T00:09:54.574Z,70.85
2022-12-27T00:10:54.564Z,70.76
2022-12-27T00:11:59.792Z,70.85
2022-12-27T00:12:54.551Z,71.04
2022-12-27T00:13:54.559Z,71.04
2022-12-27T00:14:54.562Z,70.85
2022-12-27T00:15:54.534Z,71.04
2022-12-27T00:16:54.554Z,70.85
2022-12-27T00:17:54.527Z,71.04
2022-12-27T00:18:54.535Z,71.04
2022-12-27T00:19:54.512Z,71.04
2022-12-27T00:20:54.539Z,71.04
2022-12-27T00:21:54.513Z,70.76
2022-12-27T00:22:54.529Z,70.85
2022-12-27T00:23:54.492Z,70.95
2022-12-27T00:24:54.512Z,71.04
2022-12-27T00:25:54.488Z,71.04
2022-12-27T00:26:54.497Z,70.76
2022-12-27T00:27:54.493Z,71.04
2022-12-27T00:28:54.476Z,71.04
2022-12-27T00:29:54.479Z,71.04
2022-12-27T00:30:54.481Z,71.04
2022-12-27T00:31:54.510Z,70.85
2022-12-27T00:32:54.476Z,71.04
2022-12-27T00:33:54.468Z,71.04
2022-12-27T00:34:54.457Z,70.85
2022-12-27T00:35:54.444Z,71.04
2022-12-27T00:36:54.467Z,70.85
2022-12-27T00:37:54.455Z,70.85
2022-12-27T00:38:54.445Z,70.76
2022-12-27T00:39:54.445Z,70.85
2022-12-27T00:40:54.439Z,70.85
2022-12-27T00:41:54.429Z,71.04
2022-12-27T00:42:54.431Z,70.85
2022-12-27T00:43:54.422Z,71.04
2022-12-27T00:44:54.407Z,70.95
2022-12-27T00:45:54.416Z,70.76
2022-12-27T00:46:54.415Z,70.95
2022-12-27T00:47:54.394Z,70.95
2022-12-27T00:48:54.388Z,70.85
2022-12-27T00:49:54.376Z,70.85
2022-12-27T00:50:54.394Z,70.95
2022-12-27T00:51:54.387Z,70.95
2022-12-27T00:52:54.401Z,70.95
2022-12-27T00:53:54.374Z,70.56
2022-12-27T00:54:54.375Z,70.56
2022-12-27T00:55:54.366Z,70.66
2022-12-27T00:56:54.357Z,70.66
2022-12-27T00:57:54.360Z,70.56
2022-12-27T00:58:54.347Z,70.76
2022-12-27T00:59:54.335Z,70.76
2022-12-27T01:00:54.401Z,70.95
2022-12-27T01:01:54.558Z,70.56
2022-12-27T01:02:54.339Z,70.56
2022-12-27T01:03:54.374Z,70.85
2022-12-27T01:04:54.336Z,70.56
2022-12-27T01:05:54.312Z,70.66
2022-12-27T01:06:54.308Z,70.76
2022-12-27T01:07:54.296Z,70.95
2022-12-27T01:08:54.333Z,70.56
2022-12-27T01:09:54.290Z,70.56
2022-12-27T01:10:54.313Z,70.66
2022-12-27T01:11:54.281Z,70.56
2022-12-27T01:12:54.292Z,70.76
2022-12-27T01:13:54.274Z,70.56
2022-12-27T01:14:54.291Z,70.66
2022-12-27T01:15:54.265Z,70.56
2022-12-27T01:16:54.272Z,70.76
2022-12-27T01:17:54.256Z,70.76
2022-12-27T01:18:54.275Z,70.56
2022-12-27T01:19:54.261Z,70.56
2022-12-27T01:20:54.252Z,70.76
2022-12-27T01:21:54.241Z,70.76
2022-12-27T01:22:54.241Z,70.66
2022-12-27T01:23:54.230Z,70.56
2022-12-27T01:24:54.267Z,70.76
2022-12-27T01:25:54.227Z,70.66
2022-12-27T01:26:54.225Z,70.76
2022-12-27T01:27:54.212Z,70.56
2022-12-27T01:28:54.251Z,70.76
2022-12-27T01:29:54.212Z,70.76
2022-12-27T01:30:54.210Z,70.76
2022-12-27T01:31:54.221Z,70.56
2022-12-27T01:32:54.216Z,70.66
2022-12-27T01:33:54.184Z,70.66
2022-12-27T01:34:54.203Z,70.95
2022-12-27T01:35:54.169Z,70.56
2022-12-27T01:36:54.183Z,70.76
2022-12-27T01:37:54.160Z,70.95
2022-12-27T01:38:54.185Z,70.66
2022-12-27T01:39:54.156Z,70.66
2022-12-27T01:40:54.250Z,70.95
2022-12-27T01:41:54.155Z,70.56
2022-12-27T01:42:54.141Z,70.76
2022-12-27T01:43:54.150Z,70.76
2022-12-27T01:44:54.143Z,70.76
2022-12-27T01:45:54.185Z,70.56
2022-12-27T01:46:54.126Z,70.56
2022-12-27T01:47:54.113Z,70.56
2022-12-27T01:48:54.112Z,70.76
2022-12-27T01:49:54.110Z,70.56
2022-12-27T01:50:54.125Z,70.66
2022-12-27T01:51:54.124Z,70.95
2022-12-27T01:52:54.109Z,70.56
2022-12-27T01:53:54.090Z,70.76
2022-12-27T01:54:54.100Z,70.76
2022-12-27T01:55:54.096Z,70.56
2022-12-27T01:56:54.101Z,70.66
2022-12-27T01:57:54.072Z,70.56
2022-12-27T01:58:54.085Z,70.95
2022-12-27T01:59:54.068Z,70.66
2022-12-27T02:00:54.132Z,70.56
2022-12-27T02:01:54.221Z,70.76
2022-12-27T02:02:54.083Z,70.76
2022-12-27T02:03:54.043Z,70.56
2022-12-27T02:04:54.085Z,70.95
2022-12-27T02:05:54.044Z,70.85
2022-12-27T02:06:54.038Z,70.66
2022-12-27T02:07:54.023Z,70.66
2022-12-27T02:08:54.030Z,70.95
2022-12-27T02:09:54.013Z,70.66
2022-12-27T02:10:54.029Z,70.66
2022-12-27T02:11:54.011Z,70.66
2022-12-27T02:12:54.052Z,70.56
2022-12-27T02:13:53.994Z,70.85
2022-12-27T02:14:53.997Z,70.95
2022-12-27T02:15:53.990Z,70.56
2022-12-27T02:16:54.060Z,70.85
2022-12-27T02:17:54.008Z,70.56
2022-12-27T02:18:53.976Z,70.56
2022-12-27T02:19:53.964Z,70.95
2022-12-27T02:20:53.966Z,70.66
2022-12-27T02:21:53.959Z,70.66
2022-12-27T02:22:53.970Z,70.85
2022-12-27T02:23:53.958Z,70.85
2022-12-27T02:24:53.948Z,70.95
2022-12-27T02:25:53.953Z,70.56
2022-12-27T02:26:53.948Z,70.95
2022-12-27T02:27:53.963Z,70.85
2022-12-27T02:28:53.961Z,70.76
2022-12-27T02:29:53.932Z,70.76
2022-12-27T02:30:53.963Z,70.66
2022-12-27T02:31:53.923Z,70.85
2022-12-27T02:32:53.921Z,70.76
2022-12-27T02:33:53.905Z,70.76
2022-12-27T02:34:53.918Z,70.76
2022-12-27T02:35:53.903Z,70.76
2022-12-27T02:36:53.903Z,70.95
2022-12-27T02:37:53.890Z,70.76
2022-12-27T02:38:53.888Z,70.76
2022-12-27T02:39:53.874Z,70.76
2022-12-27T02:40:53.884Z,70.85
2022-12-27T02:41:53.869Z,70.76
2022-12-27T02:42:53.877Z,70.85
2022-12-27T02:43:53.871Z,70.76
2022-12-27T02:44:53.899Z,70.76
2022-12-27T02:45:53.874Z,70.85
2022-12-27T02:46:53.861Z,70.95
2022-12-27T02:47:53.851Z,70.76
2022-12-27T02:48:53.841Z,71.04
2022-12-27T02:49:53.828Z,70.95
2022-12-27T02:50:53.833Z,70.95
2022-12-27T02:51:53.836Z,71.04
2022-12-27T02:52:53.815Z,70.95
2022-12-27T02:53:53.805Z,70.85
2022-12-27T02:54:53.820Z,70.95
2022-12-27T02:55:53.799Z,70.81
2022-12-27T02:56:53.813Z,71.04
2022-12-27T02:57:53.795Z,70.85
2022-12-27T02:58:53.811Z,70.85
2022-12-27T02:59:53.789Z,70.85
2022-12-27T03:00:53.806Z,70.85
2022-12-27T03:01:53.967Z,70.76
2022-12-27T03:02:53.838Z,70.85
2022-12-27T03:03:53.759Z,71.01
2022-12-27T03:04:53.770Z,70.91
2022-12-27T03:05:53.759Z,71.04
2022-12-27T03:06:53.762Z,71.04
2022-12-27T03:07:53.743Z,71.04
2022-12-27T03:08:53.774Z,70.95
2022-12-27T03:09:53.745Z,70.85
2022-12-27T03:10:53.747Z,70.85
2022-12-27T03:11:53.735Z,70.81
2022-12-27T03:12:53.736Z,70.76
2022-12-27T03:13:53.727Z,70.85
2022-12-27T03:14:53.733Z,70.85
2022-12-27T03:15:53.741Z,71.04
2022-12-27T03:16:53.798Z,70.85
2022-12-27T03:17:53.713Z,70.28
2022-12-27T03:18:53.712Z,70.76
2022-12-27T03:19:53.685Z,70.76
2022-12-27T03:20:53.696Z,70.34
2022-12-27T03:21:53.675Z,70.76
2022-12-27T03:22:53.686Z,70.56
2022-12-27T03:23:53.676Z,70.72
2022-12-27T03:24:53.685Z,70.91
2022-12-27T03:25:53.655Z,70.37
2022-12-27T03:26:53.670Z,70.34
2022-12-27T03:27:53.658Z,70.91
2022-12-27T03:28:53.668Z,70.72
2022-12-27T03:29:53.649Z,70.95
2022-12-27T03:30:53.714Z,70.72
2022-12-27T03:31:53.641Z,70.76
2022-12-27T03:32:53.653Z,70.91
2022-12-27T03:33:53.619Z,70.34
2022-12-27T03:34:53.622Z,70.62
2022-12-27T03:35:53.622Z,70.66
2022-12-27T03:36:53.632Z,70.76
2022-12-27T03:37:53.607Z,70.76
2022-12-27T03:38:53.609Z,70.56
2022-12-27T03:39:53.608Z,70.56
2022-12-27T03:40:53.597Z,70.85
2022-12-27T03:41:53.625Z,70.76
2022-12-27T03:42:53.598Z,70.43
2022-12-27T03:43:53.570Z,70.53
2022-12-27T03:44:53.587Z,70.24
2022-12-27T03:45:53.583Z,70.56
2022-12-27T03:46:53.566Z,70.91
2022-12-27T03:47:53.568Z,70.62
2022-12-27T03:48:53.588Z,70.72
2022-12-27T03:49:53.571Z,70.62
2022-12-27T03:50:53.545Z,70.66
2022-12-27T03:51:53.533Z,70.76
2022-12-27T03:52:53.551Z,70.72
2022-12-27T03:53:53.538Z,70.66
2022-12-27T03:54:53.541Z,70.72
2022-12-27T03:55:53.527Z,70.72
2022-12-27T03:56:53.518Z,70.24
2022-12-27T03:57:53.518Z,70.62
2022-12-27T03:58:53.512Z,70.53
2022-12-27T03:59:53.514Z,70.43
2022-12-27T04:00:53.497Z,70.81
2022-12-27T04:01:53.578Z,70.43
2022-12-27T04:02:53.594Z,70.62
2022-12-27T04:03:53.494Z,70.43
2022-12-27T04:04:53.514Z,70.66
2022-12-27T04:05:53.484Z,70.76
2022-12-27T04:06:53.468Z,70.72
2022-12-27T04:07:53.466Z,70.43
2022-12-27T04:08:53.455Z,70.72
2022-12-27T04:09:53.470Z,70.72
2022-12-27T04:10:53.449Z,70.72
2022-12-27T04:11:53.447Z,70.76
2022-12-27T04:12:53.450Z,70.72
2022-12-27T04:13:53.450Z,70.72
2022-12-27T04:14:53.437Z,70.62
2022-12-27T04:15:53.493Z,70.66
2022-12-27T04:16:53.420Z,70.53
2022-12-27T04:17:53.420Z,70.56
2022-12-27T04:18:53.423Z,70.62
2022-12-27T04:19:53.406Z,70.81
2022-12-27T04:20:53.443Z,70.56
2022-12-27T04:21:53.405Z,70.56
2022-12-27T04:22:53.403Z,70.53
2022-12-27T04:23:53.401Z,70.56
2022-12-27T04:24:53.390Z,70.53
2022-12-27T04:25:53.390Z,70.43
2022-12-27T04:26:53.376Z,70.47
2022-12-27T04:27:53.386Z,70.53
2022-12-27T04:28:53.493Z,70.43
2022-12-27T04:29:53.372Z,70.43
2022-12-27T04:30:53.406Z,70.43
2022-12-27T04:31:53.367Z,70.53
2022-12-27T04:32:53.358Z,70.53
2022-12-27T04:33:53.469Z,70.53
2022-12-27T04:34:53.331Z,70.53
2022-12-27T04:35:53.348Z,70.53
2022-12-27T04:36:53.341Z,70.53
2022-12-27T04:37:53.318Z,70.53
2022-12-27T04:38:53.328Z,70.81
2022-12-27T04:39:53.321Z,70.43
2022-12-27T04:40:53.307Z,70.43
2022-12-27T04:41:53.312Z,70.43
2022-12-27T04:42:53.299Z,70.43
2022-12-27T04:43:53.400Z,70.53
2022-12-27T04:44:53.301Z,70.43
2022-12-27T04:45:53.317Z,70.43
2022-12-27T04:46:53.339Z,70.53
2022-12-27T04:47:53.282Z,70.43
2022-12-27T04:48:53.273Z,70.53
2022-12-27T04:49:53.266Z,70.34
2022-12-27T04:50:53.256Z,70.53
2022-12-27T04:51:53.271Z,70.53
2022-12-27T04:52:53.281Z,70.72
2022-12-27T04:53:53.261Z,70.53
2022-12-27T04:54:53.260Z,70.43
2022-12-27T04:55:53.248Z,70.53
2022-12-27T04:56:53.231Z,70.43
2022-12-27T04:57:53.241Z,70.53
2022-12-27T04:58:53.257Z,70.81
2022-12-27T04:59:53.230Z,70.43
2022-12-27T05:00:53.221Z,70.53
2022-12-27T05:01:53.296Z,70.91
2022-12-27T05:02:53.449Z,70.62
2022-12-27T05:03:53.211Z,71.01
2022-12-27T05:04:53.192Z,70.56
2022-12-27T05:05:53.213Z,70.62
2022-12-27T05:06:53.199Z,70.47
2022-12-27T05:07:53.198Z,70.47
2022-12-27T05:08:53.190Z,70.53
2022-12-27T05:09:53.168Z,70.53
2022-12-27T05:10:53.188Z,70.53
2022-12-27T05:11:53.194Z,70.43
2022-12-27T05:12:53.174Z,70.53
2022-12-27T05:13:53.154Z,70.53
2022-12-27T05:14:53.165Z,70.53
2022-12-27T05:15:53.189Z,70.62
2022-12-27T05:16:53.152Z,70.34
2022-12-27T05:17:53.142Z,70.53
2022-12-27T05:18:53.140Z,70.53
2022-12-27T05:19:53.132Z,70.43
2022-12-27T05:20:53.126Z,70.53
2022-12-27T05:21:53.116Z,70.53
2022-12-27T05:22:53.111Z,70.66
2022-12-27T05:23:53.121Z,70.43
2022-12-27T05:24:53.138Z,70.53
2022-12-27T05:25:53.131Z,70.43
2022-12-27T05:26:53.088Z,70.53
2022-12-27T05:27:53.103Z,70.56
2022-12-27T05:28:53.085Z,70.53
2022-12-27T05:29:53.075Z,70.53
2022-12-27T05:30:53.084Z,70.43
2022-12-27T05:31:53.084Z,70.47
2022-12-27T05:32:53.077Z,70.43
2022-12-27T05:33:53.082Z,70.43
2022-12-27T05:34:53.072Z,70.53
2022-12-27T05:35:53.062Z,70.43
2022-12-27T05:36:53.051Z,70.53
2022-12-27T05:37:55.022Z,70.53
2022-12-27T05:38:53.031Z,70.53
2022-12-27T05:39:53.034Z,70.43
2022-12-27T05:40:53.052Z,70.43
2022-12-27T05:41:53.043Z,70.53
2022-12-27T05:42:53.026Z,70.53
2022-12-27T05:43:53.070Z,70.43
2022-12-27T05:44:53.022Z,70.53
2022-12-27T05:45:53.014Z,70.53
2022-12-27T05:46:53.025Z,70.53
2022-12-27T05:47:53.012Z,70.53
2022-12-27T05:48:52.988Z,70.53
2022-12-27T05:49:52.997Z,70.53
2022-12-27T05:50:53.000Z,70.53
2022-12-27T05:51:52.992Z,70.53
2022-12-27T05:52:52.969Z,70.53
2022-12-27T05:53:52.980Z,70.53
2022-12-27T05:54:52.963Z,70.62
2022-12-27T05:55:52.975Z,70.43
2022-12-27T05:56:52.978Z,70.53
2022-12-27T05:57:52.957Z,70.53
2022-12-27T05:58:52.952Z,70.53
2022-12-27T05:59:52.959Z,70.43
2022-12-27T06:00:52.929Z,70.53
2022-12-27T06:01:53.104Z,70.53
2022-12-27T06:02:53.056Z,70.62
2022-12-27T06:03:52.939Z,70.43
2022-12-27T06:04:52.919Z,70.53
2022-12-27T06:05:52.924Z,70.53
2022-12-27T06:06:52.913Z,70.43
2022-12-27T06:07:52.927Z,70.53
2022-12-27T06:08:52.900Z,70.43
2022-12-27T06:09:52.911Z,70.43
2022-12-27T06:10:52.901Z,70.53
2022-12-27T06:11:52.894Z,70.53
2022-12-27T06:12:52.905Z,70.43
2022-12-27T06:13:52.903Z,70.34
2022-12-27T06:14:52.879Z,70.43
2022-12-27T06:15:52.873Z,70.53
2022-12-27T06:16:52.949Z,70.43
2022-12-27T06:17:52.878Z,70.43
2022-12-27T06:18:52.853Z,70.53
2022-12-27T06:19:57.000Z,70.91
2022-12-27T06:20:52.840Z,70.43
2022-12-27T06:21:52.853Z,70.53
2022-12-27T06:22:52.843Z,70.53
2022-12-27T06:23:52.838Z,70.53
2022-12-27T06:24:52.834Z,70.43
2022-12-27T06:25:52.838Z,70.62
2022-12-27T06:26:52.820Z,70.43
2022-12-27T06:27:52.805Z,70.53
2022-12-27T06:28:52.839Z,70.53
2022-12-27T06:29:52.817Z,70.62
2022-12-27T06:30:52.803Z,70.53
2022-12-27T06:31:52.855Z,70.62
2022-12-27T06:32:52.792Z,70.43
2022-12-27T06:33:52.799Z,70.53
2022-12-27T06:34:52.770Z,70.53
2022-12-27T06:35:52.787Z,70.62
2022-12-27T06:36:52.781Z,70.53
2022-12-27T06:37:52.758Z,71.01
2022-12-27T06:38:52.753Z,70.53
2022-12-27T06:39:52.748Z,70.43
2022-12-27T06:40:52.750Z,70.72
2022-12-27T06:41:52.747Z,70.62
2022-12-27T06:42:52.734Z,70.43
2022-12-27T06:43:52.754Z,70.72
2022-12-27T06:44:52.748Z,70.53
2022-12-27T06:45:52.769Z,70.62
2022-12-27T06:46:52.728Z,70.24
2022-12-27T06:47:52.725Z,70.72
2022-12-27T06:48:52.739Z,70.53
2022-12-27T06:49:52.714Z,70.62
2022-12-27T06:50:52.734Z,70.62
2022-12-27T06:51:59.083Z,70.53
2022-12-27T06:52:52.700Z,70.81
2022-12-27T06:53:52.723Z,70.62
2022-12-27T06:54:52.693Z,70.62
2022-12-27T06:55:52.698Z,70.62
2022-12-27T06:56:52.680Z,70.62
2022-12-27T06:57:52.683Z,70.53
2022-12-27T06:58:52.668Z,70.53
2022-12-27T06:59:54.279Z,70.53
2022-12-27T07:00:52.691Z,70.91
2022-12-27T07:01:52.866Z,70.53
2022-12-27T07:02:52.797Z,70.53
2022-12-27T07:03:52.640Z,70.53
2022-12-27T07:04:52.657Z,70.43
2022-12-27T07:05:52.645Z,70.43
2022-12-27T07:06:52.625Z,70.43
2022-12-27T07:07:52.620Z,70.53
2022-12-27T07:08:52.615Z,70.43
2022-12-27T07:09:52.614Z,71.01
2022-12-27T07:10:52.621Z,70.43
2022-12-27T07:11:52.612Z,71.01
2022-12-27T07:12:52.596Z,70.62
2022-12-27T07:13:52.621Z,70.43
2022-12-27T07:14:52.591Z,70.43
2022-12-27T07:15:52.601Z,70.62
2022-12-27T07:16:52.679Z,70.72
2022-12-27T07:17:52.594Z,70.62
2022-12-27T07:18:52.568Z,70.72
2022-12-27T07:19:52.565Z,70.72
2022-12-27T07:20:52.572Z,70.91
2022-12-27T07:21:52.575Z,70.62
2022-12-27T07:22:52.560Z,70.72
2022-12-27T07:23:52.564Z,70.62
2022-12-27T07:24:52.534Z,70.91
2022-12-27T07:25:52.556Z,70.72
2022-12-27T07:26:52.535Z,70.62
2022-12-27T07:27:52.544Z,70.62
2022-12-27T07:28:52.518Z,70.91
2022-12-27T07:29:52.533Z,70.43
2022-12-27T07:30:52.531Z,70.43
2022-12-27T07:31:52.557Z,70.53
2022-12-27T07:32:52.534Z,70.91
2022-12-27T07:33:52.535Z,70.72
2022-12-27T07:34:52.516Z,70.62
2022-12-27T07:35:52.505Z,70.72
2022-12-27T07:36:52.517Z,70.72
2022-12-27T07:37:52.501Z,70.34
2022-12-27T07:38:52.486Z,70.72
2022-12-27T07:39:52.485Z,70.62
2022-12-27T07:40:52.481Z,70.91
2022-12-27T07:41:52.476Z,70.72
2022-12-27T07:42:52.467Z,70.62
2022-12-27T07:43:52.463Z,70.62
2022-12-27T07:44:52.458Z,70.34
2022-12-27T07:45:52.476Z,70.91
2022-12-27T07:46:52.460Z,70.62
2022-12-27T07:47:52.450Z,70.24
2022-12-27T07:48:52.449Z,70.91
2022-12-27T07:49:52.425Z,70.72
2022-12-27T07:50:52.429Z,70.24
2022-12-27T07:51:52.431Z,70.72
2022-12-27T07:52:52.409Z,70.72
2022-12-27T07:53:52.460Z,70.72
2022-12-27T07:54:52.406Z,70.62
2022-12-27T07:55:52.399Z,70.91
2022-12-27T07:56:52.392Z,70.72
2022-12-27T07:57:52.387Z,70.34
2022-12-27T07:58:52.380Z,70.72
2022-12-27T07:59:52.414Z,70.43
2022-12-27T08:00:52.392Z,70.34
2022-12-27T08:01:52.413Z,70.24
2022-12-27T08:02:52.471Z,70.72
2022-12-27T08:03:52.376Z,70.62
2022-12-27T08:04:52.373Z,70.72
2022-12-27T08:05:52.374Z,70.43
2022-12-27T08:06:52.359Z,70.62
2022-12-27T08:07:52.361Z,70.72
2022-12-27T08:08:52.332Z,70.72
2022-12-27T08:09:52.346Z,70.62
2022-12-27T08:10:52.327Z,70.43
2022-12-27T08:11:52.331Z,70.72
2022-12-27T08:12:52.321Z,70.53
2022-12-27T08:13:52.308Z,70.72
2022-12-27T08:14:52.305Z,70.72
2022-12-27T08:15:52.327Z,70.72
2022-12-27T08:16:52.387Z,70.24
2022-12-27T08:17:52.295Z,70.72
2022-12-27T08:18:52.287Z,70.72
2022-12-27T08:19:52.299Z,70.34
2022-12-27T08:20:52.493Z,70.62
2022-12-27T08:21:52.272Z,70.91
2022-12-27T08:22:52.305Z,70.72
2022-12-27T08:23:52.290Z,70.53
2022-12-27T08:24:52.270Z,70.72
2022-12-27T08:25:52.251Z,70.62
2022-12-27T08:26:52.262Z,70.43
2022-12-27T08:27:52.260Z,70.53
2022-12-27T08:28:52.249Z,70.72
2022-12-27T08:29:52.251Z,70.91
2022-12-27T08:30:52.296Z,70.43
2022-12-27T08:31:52.248Z,70.24
2022-12-27T08:32:52.239Z,70.72
2022-12-27T08:33:58.064Z,70.53
2022-12-27T08:34:52.224Z,70.62
2022-12-27T08:35:54.073Z,70.43
2022-12-27T08:36:56.352Z,70.62
2022-12-27T08:37:52.215Z,70.62
2022-12-27T08:38:52.204Z,70.43
2022-12-27T08:39:53.135Z,70.62
2022-12-27T08:40:52.186Z,70.91
2022-12-27T08:41:52.179Z,70.53
2022-12-27T08:42:52.192Z,70.53
2022-12-27T08:43:52.179Z,70.72
2022-12-27T08:44:52.183Z,70.53
2022-12-27T08:45:52.207Z,70.91
2022-12-27T08:46:52.165Z,70.53
2022-12-27T08:47:52.207Z,70.62
2022-12-27T08:48:52.152Z,70.81
2022-12-27T08:49:52.161Z,70.34
2022-12-27T08:50:52.142Z,70.81
2022-12-27T08:51:52.143Z,70.43
2022-12-27T08:52:52.156Z,70.53
2022-12-27T08:53:52.138Z,70.53
2022-12-27T08:54:52.138Z,71.01
2022-12-27T08:55:52.109Z,70.53
2022-12-27T08:56:52.116Z,70.62
2022-12-27T08:57:52.106Z,70.53
2022-12-27T08:58:52.132Z,70.62
2022-12-27T08:59:52.092Z,70.53
2022-12-27T09:00:52.106Z,70.43
2022-12-27T09:01:52.223Z,70.53
2022-12-27T09:02:52.136Z,70.62
2022-12-27T09:03:52.098Z,70.72
2022-12-27T09:04:52.108Z,70.43
2022-12-27T09:05:52.066Z,70.53
2022-12-27T09:06:52.083Z,70.53
2022-12-27T09:07:52.068Z,70.43
2022-12-27T09:08:52.147Z,70.53
2022-12-27T09:09:52.071Z,70.91
2022-12-27T09:10:52.058Z,71.01
2022-12-27T09:11:52.051Z,70.62
2022-12-27T09:12:52.042Z,70.53
2022-12-27T09:13:52.076Z,70.81
2022-12-27T09:14:52.044Z,70.81
2022-12-27T09:15:52.055Z,70.43
2022-12-27T09:16:52.036Z,70.91
2022-12-27T09:17:52.023Z,70.53
2022-12-27T09:18:52.013Z,70.53
2022-12-27T09:19:52.008Z,70.53
2022-12-27T09:20:52.016Z,70.43
2022-12-27T09:21:52.014Z,70.53
2022-12-27T09:22:52.028Z,70.53
2022-12-27T09:23:52.015Z,70.62
2022-12-27T09:24:52.005Z,70.53
2022-12-27T09:25:51.993Z,70.53
2022-12-27T09:26:51.998Z,70.43
2022-12-27T09:27:51.983Z,70.43
2022-12-27T09:28:51.985Z,70.53
2022-12-27T09:29:51.954Z,70.53
2022-12-27T09:30:51.976Z,70.43
2022-12-27T09:31:51.943Z,70.53
2022-12-27T09:32:51.971Z,70.53
2022-12-27T09:33:51.954Z,70.53
2022-12-27T09:34:51.945Z,70.43
2022-12-27T09:35:51.940Z,70.53
2022-12-27T09:36:51.922Z,70.91
2022-12-27T09:37:51.933Z,70.53
2022-12-27T09:38:51.937Z,70.53
2022-12-27T09:39:51.907Z,70.62
2022-12-27T09:40:51.939Z,70.53
2022-12-27T09:42:45.118Z,70.43
2022-12-27T09:43:06.193Z,70.53
2022-12-27T09:43:51.906Z,70.43
2022-12-27T09:44:51.892Z,70.53
2022-12-27T09:45:51.881Z,70.53
2022-12-27T09:46:51.884Z,70.81
2022-12-27T09:47:51.873Z,70.53
2022-12-27T09:48:51.870Z,70.53
2022-12-27T09:49:51.880Z,70.43
2022-12-27T09:50:51.877Z,70.53
2022-12-27T09:51:51.865Z,70.62
2022-12-27T09:52:51.853Z,70.43
2022-12-27T09:53:51.841Z,70.72
2022-12-27T09:54:51.871Z,70.43
2022-12-27T09:55:51.840Z,70.34
2022-12-27T09:57:19.005Z,70.43
2022-12-27T09:57:51.829Z,70.34
2022-12-27T09:58:51.848Z,70.43
2022-12-27T09:59:51.852Z,70.34
2022-12-27T10:00:51.815Z,70.72
2022-12-27T10:01:51.942Z,70.72
2022-12-27T10:02:51.900Z,70.43
2022-12-27T10:03:51.818Z,70.53
2022-12-27T10:05:56.192Z,70.91
2022-12-27T10:06:51.807Z,70.34
2022-12-27T10:07:51.775Z,70.62
2022-12-27T10:08:51.791Z,70.91
2022-12-27T10:09:51.766Z,70.72
2022-12-27T10:10:51.773Z,70.91
2022-12-27T10:11:51.763Z,70.53
2022-12-27T10:12:51.800Z,70.62
2022-12-27T10:13:51.769Z,70.43
2022-12-27T10:14:51.755Z,70.62
2022-12-27T10:15:51.804Z,70.43
2022-12-27T10:16:51.753Z,70.43
2022-12-27T10:17:53.624Z,70.62
2022-12-27T10:18:51.753Z,70.34
2022-12-27T10:19:51.722Z,70.72
2022-12-27T10:20:51.750Z,70.43
2022-12-27T10:21:51.726Z,70.62
2022-12-27T10:22:51.726Z,70.34
2022-12-27T10:23:51.725Z,70.62
2022-12-27T10:24:51.721Z,70.62
2022-12-27T10:25:51.703Z,70.62
2022-12-27T10:26:51.697Z,70.43
2022-12-27T10:27:51.684Z,70.62
2022-12-27T10:28:56.867Z,70.43
2022-12-27T10:29:51.683Z,70.72
2022-12-27T10:30:51.675Z,70.62
2022-12-27T10:31:51.693Z,70.62
2022-12-27T10:32:51.679Z,70.43
2022-12-27T10:33:51.671Z,70.34
2022-12-27T10:34:51.671Z,70.34
2022-12-27T10:35:51.681Z,70.34
2022-12-27T10:36:51.675Z,70.43
2022-12-27T10:37:51.657Z,70.53
2022-12-27T10:38:51.661Z,70.43
2022-12-27T10:39:51.636Z,70.72
2022-12-27T10:40:51.642Z,70.72
2022-12-27T10:41:51.622Z,70.62
2022-12-27T10:42:51.632Z,70.72
2022-12-27T10:43:51.632Z,70.62
2022-12-27T10:44:51.646Z,70.72
2022-12-27T10:45:51.601Z,70.62
2022-12-27T10:46:51.701Z,70.62
2022-12-27T10:47:51.613Z,70.81
2022-12-27T10:49:19.633Z,70.34
2022-12-27T10:49:51.588Z,70.72
2022-12-27T10:50:51.596Z,70.62
2022-12-27T10:51:51.602Z,70.81
2022-12-27T10:52:57.301Z,70.72
2022-12-27T10:53:51.584Z,70.43
2022-12-27T10:54:51.577Z,70.43
2022-12-27T10:55:51.570Z,70.43
2022-12-27T10:56:51.568Z,70.43
2022-12-27T10:57:51.568Z,70.15
2022-12-27T10:58:58.106Z,70.24
2022-12-27T10:59:51.537Z,70.15
2022-12-27T11:00:51.656Z,70.24
2022-12-27T11:01:51.787Z,70.43
2022-12-27T11:02:51.615Z,70.24
2022-12-27T11:03:51.517Z,70.24
2022-12-27T11:04:51.522Z,70.24
2022-12-27T11:05:51.524Z,70.24
2022-12-27T11:06:51.664Z,70.24
2022-12-27T11:07:51.502Z,70.15
2022-12-27T11:08:51.514Z,70.34
2022-12-27T11:09:51.517Z,70.24
2022-12-27T11:10:51.511Z,70.43
2022-12-27T11:11:51.495Z,70.34
2022-12-27T11:12:51.482Z,70.24
2022-12-27T11:13:51.506Z,70.53
2022-12-27T11:14:51.479Z,70.24
2022-12-27T11:15:55.376Z,70.53
2022-12-27T11:16:51.489Z,70.24
2022-12-27T11:17:51.470Z,70.05
2022-12-27T11:18:51.467Z,70.34
2022-12-27T11:19:51.451Z,70.05
2022-12-27T11:20:51.454Z,70.24
2022-12-27T11:21:51.443Z,70.15
2022-12-27T11:22:51.448Z,70.53
2022-12-27T11:23:51.440Z,70.34
2022-12-27T11:24:51.443Z,70.24
2022-12-27T11:25:51.433Z,70.53
2022-12-27T11:26:53.923Z,70.34
2022-12-27T11:27:51.408Z,70.15
2022-12-27T11:28:51.409Z,70.24
2022-12-27T11:29:51.422Z,70.43
2022-12-27T11:30:51.417Z,70.43
2022-12-27T11:31:51.464Z,70.43
2022-12-27T11:32:51.467Z,70.43
2022-12-27T11:33:51.395Z,70.15
2022-12-27T11:34:51.385Z,70.05
2022-12-27T11:35:51.393Z,70.05
2022-12-27T11:36:51.380Z,70.15
2022-12-27T11:37:51.361Z,70.05
2022-12-27T11:38:51.378Z,70.43
2022-12-27T11:39:51.375Z,70.43
2022-12-27T11:40:51.359Z,70.05
2022-12-27T11:41:51.345Z,70.05
2022-12-27T11:42:51.349Z,70.05
2022-12-27T11:43:51.349Z,70.24
2022-12-27T11:44:51.354Z,70.24
2022-12-27T11:45:51.365Z,70.05
2022-12-27T11:46:57.018Z,70.24
2022-12-27T11:47:51.318Z,70.05
2022-12-27T11:48:51.421Z,70.24
2022-12-27T11:49:51.315Z,70.24
2022-12-27T11:50:51.323Z,70.24
2022-12-27T11:51:51.301Z,70.15
2022-12-27T11:52:51.304Z,70.15
2022-12-27T11:53:56.137Z,70.15
2022-12-27T11:54:51.295Z,70.24
2022-12-27T11:55:51.299Z,70.53
2022-12-27T11:56:51.282Z,70.34
2022-12-27T11:57:51.296Z,70.24
2022-12-27T11:58:51.284Z,70.43
2022-12-27T11:59:51.285Z,69.95
2022-12-27T12:00:51.260Z,70.43
2022-12-27T12:01:51.468Z,70.43
2022-12-27T12:02:51.404Z,70.15
2022-12-27T12:03:51.245Z,70.53
2022-12-27T12:04:51.269Z,70.34
2022-12-27T12:05:51.264Z,70.53
2022-12-27T12:06:51.250Z,70.34
2022-12-27T12:07:51.257Z,70.53
2022-12-27T12:08:51.230Z,70.34
2022-12-27T12:09:51.234Z,69.86
2022-12-27T12:10:51.219Z,70.43
2022-12-27T12:11:54.923Z,69.86
2022-12-27T12:12:51.234Z,69.95
2022-12-27T12:13:51.210Z,69.67
2022-12-27T12:14:51.220Z,69.76
2022-12-27T12:15:51.210Z,70.43
2022-12-27T12:16:51.260Z,69.86
2022-12-27T12:17:51.184Z,69.86
2022-12-27T12:18:51.209Z,69.95
2022-12-27T12:19:51.188Z,69.95
2022-12-27T12:20:51.351Z,69.86
2022-12-27T12:21:51.169Z,69.67
2022-12-27T12:22:51.171Z,69.76
2022-12-27T12:23:51.163Z,69.67
2022-12-27T12:24:51.188Z,70.15
2022-12-27T12:25:51.157Z,69.76
2022-12-27T12:26:55.711Z,69.76
2022-12-27T12:27:51.155Z,69.67
2022-12-27T12:28:59.863Z,69.67
2022-12-27T12:29:51.131Z,70.15
2022-12-27T12:30:51.156Z,69.76
2022-12-27T12:31:51.214Z,69.67
2022-12-27T12:32:51.136Z,69.67
2022-12-27T12:33:51.130Z,69.95
2022-12-27T12:34:51.111Z,70.05
2022-12-27T12:35:51.114Z,69.67
2022-12-27T12:36:52.836Z,70.15
2022-12-27T12:37:51.099Z,69.86
2022-12-27T12:38:51.105Z,70.05
2022-12-27T12:39:51.093Z,69.67
2022-12-27T12:40:51.082Z,69.57
2022-12-27T12:41:51.100Z,69.67
2022-12-27T12:42:51.089Z,69.76
2022-12-27T12:43:51.073Z,69.76
2022-12-27T12:44:51.067Z,69.67
2022-12-27T12:45:51.175Z,69.95
2022-12-27T12:46:51.074Z,69.76
2022-12-27T12:47:51.096Z,69.76
2022-12-27T12:48:51.068Z,69.95
2022-12-27T12:49:51.048Z,69.76
2022-12-27T12:50:51.056Z,69.76
2022-12-27T12:51:51.056Z,69.76
2022-12-27T12:52:51.052Z,69.67
2022-12-27T12:53:51.031Z,69.67